sensor_id;sensor_type;location;lat;lon;timestamp;P1;durP1;ratioP1;P2;durP2;ratioP2
48554;SDS011;34336;48.270;16.716;2022-09-14T00:02:16;4.10;;;3.70;;
48554;SDS011;34336;48.270;16.716;2022-09-14T00:04:43;4.35;;;3.70;;
48554;SDS011;34336;48.270;16.716;2022-09-14T00:07:09;4.43;;;3.67;;
48554;SDS011;34336;48.270;16.716;2022-09-14T00:09:36;3.92;;;3.50;;
48554;SDS011;34336;48.270;16.716;2022-09-14T00:12:03;5.30;;;3.58;;
48554;SDS011;34336;48.270;16.716;2022-09-14T00:14:30;4.75;;;4.20;;
48554;SDS011;34336;48.270;16.716;2022-09-14T00:16:56;5.20;;;3.72;;
48554;SDS011;34336;48.270;16.716;2022-09-14T00:19:24;7.10;;;3.83;;
48554;SDS011;34336;48.270;16.716;2022-09-14T00:21:56;6.45;;;4.05;;
48554;SDS011;34336;48.270;16.716;2022-09-14T00:24:26;5.68;;;4.18;;
48554;SDS011;34336;48.270;16.716;2022-09-14T00:26:56;5.43;;;4.13;;
48554;SDS011;34336;48.270;16.716;2022-09-14T00:29:23;5.90;;;4.05;;
48554;SDS011;34336;48.270;16.716;2022-09-14T00:31:50;5.03;;;3.95;;
48554;SDS011;34336;48.270;16.716;2022-09-14T00:34:17;4.00;;;3.60;;
48554;SDS011;34336;48.270;16.716;2022-09-14T00:36:45;4.85;;;3.85;;
48554;SDS011;34336;48.270;16.716;2022-09-14T00:39:13;5.38;;;4.20;;
48554;SDS011;34336;48.270;16.716;2022-09-14T00:41:42;4.35;;;3.85;;
48554;SDS011;34336;48.270;16.716;2022-09-14T00:46:38;4.75;;;4.00;;
48554;SDS011;34336;48.270;16.716;2022-09-14T00:49:06;5.20;;;3.75;;
48554;SDS011;34336;48.270;16.716;2022-09-14T00:51:39;4.50;;;4.05;;
48554;SDS011;34336;48.270;16.716;2022-09-14T00:54:10;4.88;;;4.13;;
48554;SDS011;34336;48.270;16.716;2022-09-14T00:56:37;5.28;;;3.60;;
48554;SDS011;34336;48.270;16.716;2022-09-14T00:59:05;5.28;;;4.00;;
48554;SDS011;34336;48.270;16.716;2022-09-14T01:01:38;5.95;;;3.90;;
48554;SDS011;34336;48.270;16.716;2022-09-14T01:04:05;5.95;;;4.20;;
48554;SDS011;34336;48.270;16.716;2022-09-14T01:09:33;5.88;;;3.78;;
48554;SDS011;34336;48.270;16.716;2022-09-14T01:20:09;4.40;;;4.00;;
48554;SDS011;34336;48.270;16.716;2022-09-14T01:23:05;4.53;;;4.05;;
48554;SDS011;34336;48.270;16.716;2022-09-14T01:28:38;4.70;;;3.85;;
48554;SDS011;34336;48.270;16.716;2022-09-14T01:31:08;5.75;;;3.97;;
48554;SDS011;34336;48.270;16.716;2022-09-14T01:34:04;4.65;;;4.07;;
48554;SDS011;34336;48.270;16.716;2022-09-14T01:36:35;6.75;;;4.40;;
48554;SDS011;34336;48.270;16.716;2022-09-14T01:39:04;4.90;;;4.10;;
48554;SDS011;34336;48.270;16.716;2022-09-14T01:41:32;6.15;;;3.97;;
48554;SDS011;34336;48.270;16.716;2022-09-14T01:44:08;4.85;;;4.30;;
48554;SDS011;34336;48.270;16.716;2022-09-14T01:46:45;4.80;;;4.10;;
48554;SDS011;34336;48.270;16.716;2022-09-14T01:52:14;5.50;;;3.75;;
48554;SDS011;34336;48.270;16.716;2022-09-14T01:55:05;4.75;;;4.10;;
48554;SDS011;34336;48.270;16.716;2022-09-14T01:57:39;5.95;;;4.80;;
48554;SDS011;34336;48.270;16.716;2022-09-14T02:00:08;4.32;;;3.92;;
48554;SDS011;34336;48.270;16.716;2022-09-14T02:07:40;5.55;;;4.60;;
48554;SDS011;34336;48.270;16.716;2022-09-14T02:10:08;5.40;;;4.22;;
48554;SDS011;34336;48.270;16.716;2022-09-14T02:12:38;4.70;;;4.10;;
48554;SDS011;34336;48.270;16.716;2022-09-14T02:15:06;5.18;;;4.30;;
48554;SDS011;34336;48.270;16.716;2022-09-14T02:17:36;4.68;;;4.05;;
48554;SDS011;34336;48.270;16.716;2022-09-14T02:20:04;5.78;;;4.45;;
48554;SDS011;34336;48.270;16.716;2022-09-14T02:22:33;4.85;;;4.35;;
48554;SDS011;34336;48.270;16.716;2022-09-14T02:25:00;7.18;;;4.22;;
48554;SDS011;34336;48.270;16.716;2022-09-14T02:27:28;6.03;;;4.65;;
48554;SDS011;34336;48.270;16.716;2022-09-14T02:29:56;5.20;;;4.70;;
48554;SDS011;34336;48.270;16.716;2022-09-14T02:32:34;5.85;;;4.90;;
48554;SDS011;34336;48.270;16.716;2022-09-14T02:57:22;4.68;;;4.18;;
48554;SDS011;34336;48.270;16.716;2022-09-14T02:59:51;4.90;;;4.00;;
48554;SDS011;34336;48.270;16.716;2022-09-14T03:02:19;7.05;;;4.43;;
48554;SDS011;34336;48.270;16.716;2022-09-14T03:04:46;6.60;;;4.60;;
48554;SDS011;34336;48.270;16.716;2022-09-14T03:07:13;5.30;;;4.18;;
48554;SDS011;34336;48.270;16.716;2022-09-14T03:09:39;5.88;;;4.35;;
48554;SDS011;34336;48.270;16.716;2022-09-14T03:12:06;6.40;;;4.93;;
48554;SDS011;34336;48.270;16.716;2022-09-14T03:14:33;5.38;;;4.72;;
48554;SDS011;34336;48.270;16.716;2022-09-14T03:17:00;5.30;;;4.60;;
48554;SDS011;34336;48.270;16.716;2022-09-14T03:19:26;5.15;;;4.38;;
48554;SDS011;34336;48.270;16.716;2022-09-14T03:21:53;5.25;;;4.32;;
48554;SDS011;34336;48.270;16.716;2022-09-14T03:24:20;6.18;;;4.60;;
48554;SDS011;34336;48.270;16.716;2022-09-14T03:26:47;6.15;;;4.53;;
48554;SDS011;34336;48.270;16.716;2022-09-14T03:29:17;5.03;;;4.40;;
48554;SDS011;34336;48.270;16.716;2022-09-14T03:31:44;6.80;;;4.70;;
48554;SDS011;34336;48.270;16.716;2022-09-14T03:34:11;6.03;;;4.47;;
48554;SDS011;34336;48.270;16.716;2022-09-14T03:36:38;6.70;;;5.05;;
48554;SDS011;34336;48.270;16.716;2022-09-14T03:39:05;6.20;;;5.35;;
48554;SDS011;34336;48.270;16.716;2022-09-14T03:41:31;6.82;;;5.00;;
48554;SDS011;34336;48.270;16.716;2022-09-14T03:43:58;5.20;;;4.63;;
48554;SDS011;34336;48.270;16.716;2022-09-14T03:46:25;8.20;;;5.25;;
48554;SDS011;34336;48.270;16.716;2022-09-14T03:48:53;6.80;;;4.82;;
48554;SDS011;34336;48.270;16.716;2022-09-14T03:51:20;6.78;;;5.45;;
48554;SDS011;34336;48.270;16.716;2022-09-14T03:53:47;5.20;;;4.68;;
48554;SDS011;34336;48.270;16.716;2022-09-14T03:56:15;5.45;;;4.70;;
48554;SDS011;34336;48.270;16.716;2022-09-14T03:58:43;6.32;;;4.75;;
48554;SDS011;34336;48.270;16.716;2022-09-14T04:01:13;9.02;;;5.07;;
48554;SDS011;34336;48.270;16.716;2022-09-14T04:03:41;5.47;;;4.88;;
48554;SDS011;34336;48.270;16.716;2022-09-14T04:06:09;5.68;;;4.70;;
48554;SDS011;34336;48.270;16.716;2022-09-14T04:08:38;5.78;;;4.82;;
48554;SDS011;34336;48.270;16.716;2022-09-14T04:11:06;6.25;;;4.82;;
48554;SDS011;34336;48.270;16.716;2022-09-14T04:13:39;6.82;;;5.00;;
48554;SDS011;34336;48.270;16.716;2022-09-14T04:16:06;6.22;;;5.25;;
48554;SDS011;34336;48.270;16.716;2022-09-14T04:18:34;6.95;;;5.47;;
48554;SDS011;34336;48.270;16.716;2022-09-14T04:21:02;6.50;;;4.75;;
48554;SDS011;34336;48.270;16.716;2022-09-14T04:23:34;6.10;;;5.10;;
48554;SDS011;34336;48.270;16.716;2022-09-14T04:26:21;6.10;;;4.30;;
48554;SDS011;34336;48.270;16.716;2022-09-14T04:28:51;5.60;;;4.90;;
48554;SDS011;34336;48.270;16.716;2022-09-14T04:31:19;6.35;;;5.03;;
48554;SDS011;34336;48.270;16.716;2022-09-14T04:33:46;5.95;;;4.90;;
48554;SDS011;34336;48.270;16.716;2022-09-14T04:36:18;8.40;;;4.68;;
48554;SDS011;34336;48.270;16.716;2022-09-14T04:38:47;6.70;;;4.95;;
48554;SDS011;34336;48.270;16.716;2022-09-14T04:41:17;5.68;;;4.75;;
48554;SDS011;34336;48.270;16.716;2022-09-14T04:43:46;4.82;;;4.25;;
48554;SDS011;34336;48.270;16.716;2022-09-14T04:46:16;7.95;;;5.50;;
48554;SDS011;34336;48.270;16.716;2022-09-14T04:48:46;5.72;;;5.18;;
48554;SDS011;34336;48.270;16.716;2022-09-14T04:51:14;7.82;;;5.55;;
48554;SDS011;34336;48.270;16.716;2022-09-14T04:53:48;8.10;;;5.38;;
48554;SDS011;34336;48.270;16.716;2022-09-14T04:56:16;6.60;;;5.90;;
48554;SDS011;34336;48.270;16.716;2022-09-14T04:58:45;10.45;;;5.80;;
48554;SDS011;34336;48.270;16.716;2022-09-14T05:01:21;8.23;;;5.75;;
48554;SDS011;34336;48.270;16.716;2022-09-14T05:03:50;9.50;;;5.90;;
48554;SDS011;34336;48.270;16.716;2022-09-14T05:06:18;7.20;;;5.25;;
48554;SDS011;34336;48.270;16.716;2022-09-14T05:08:47;6.85;;;5.57;;
48554;SDS011;34336;48.270;16.716;2022-09-14T05:11:15;8.38;;;5.80;;
48554;SDS011;34336;48.270;16.716;2022-09-14T05:13:45;6.30;;;5.68;;
48554;SDS011;34336;48.270;16.716;2022-09-14T05:16:16;7.25;;;6.07;;
48554;SDS011;34336;48.270;16.716;2022-09-14T05:18:45;8.35;;;6.18;;
48554;SDS011;34336;48.270;16.716;2022-09-14T05:21:14;8.82;;;6.00;;
48554;SDS011;34336;48.270;16.716;2022-09-14T05:23:42;7.90;;;6.07;;
48554;SDS011;34336;48.270;16.716;2022-09-14T05:26:09;8.43;;;6.80;;
48554;SDS011;34336;48.270;16.716;2022-09-14T05:28:37;7.40;;;6.50;;
48554;SDS011;34336;48.270;16.716;2022-09-14T05:31:05;10.45;;;6.57;;
48554;SDS011;34336;48.270;16.716;2022-09-14T05:33:33;16.55;;;6.55;;
48554;SDS011;34336;48.270;16.716;2022-09-14T05:36:01;7.70;;;6.25;;
48554;SDS011;34336;48.270;16.716;2022-09-14T05:38:31;9.57;;;6.88;;
48554;SDS011;34336;48.270;16.716;2022-09-14T05:40:59;8.80;;;6.45;;
48554;SDS011;34336;48.270;16.716;2022-09-14T05:43:27;12.27;;;7.30;;
48554;SDS011;34336;48.270;16.716;2022-09-14T05:45:54;7.78;;;6.35;;
48554;SDS011;34336;48.270;16.716;2022-09-14T05:48:21;10.48;;;7.20;;
48554;SDS011;34336;48.270;16.716;2022-09-14T05:50:48;9.23;;;6.85;;
48554;SDS011;34336;48.270;16.716;2022-09-14T05:53:22;11.18;;;6.63;;
48554;SDS011;34336;48.270;16.716;2022-09-14T05:55:57;10.95;;;6.95;;
48554;SDS011;34336;48.270;16.716;2022-09-14T05:58:25;11.00;;;8.02;;
48554;SDS011;34336;48.270;16.716;2022-09-14T06:00:52;10.27;;;7.82;;
48554;SDS011;34336;48.270;16.716;2022-09-14T06:03:19;9.10;;;7.55;;
48554;SDS011;34336;48.270;16.716;2022-09-14T06:05:46;11.25;;;8.13;;
48554;SDS011;34336;48.270;16.716;2022-09-14T06:08:12;10.93;;;7.40;;
48554;SDS011;34336;48.270;16.716;2022-09-14T06:10:39;9.48;;;7.68;;
48554;SDS011;34336;48.270;16.716;2022-09-14T06:13:06;11.23;;;8.32;;
48554;SDS011;34336;48.270;16.716;2022-09-14T06:15:33;8.77;;;7.82;;
48554;SDS011;34336;48.270;16.716;2022-09-14T06:18:00;10.57;;;8.02;;
48554;SDS011;34336;48.270;16.716;2022-09-14T06:20:26;9.27;;;8.02;;
48554;SDS011;34336;48.270;16.716;2022-09-14T06:22:54;9.73;;;7.55;;
48554;SDS011;34336;48.270;16.716;2022-09-14T06:25:20;8.73;;;6.97;;
48554;SDS011;34336;48.270;16.716;2022-09-14T06:27:47;10.02;;;8.23;;
48554;SDS011;34336;48.270;16.716;2022-09-14T06:30:14;11.38;;;8.60;;
48554;SDS011;34336;48.270;16.716;2022-09-14T06:32:41;9.23;;;8.25;;
48554;SDS011;34336;48.270;16.716;2022-09-14T06:35:08;10.10;;;8.70;;
48554;SDS011;34336;48.270;16.716;2022-09-14T06:37:37;10.93;;;8.65;;
48554;SDS011;34336;48.270;16.716;2022-09-14T06:40:04;11.18;;;8.50;;
48554;SDS011;34336;48.270;16.716;2022-09-14T06:42:31;10.57;;;8.70;;
48554;SDS011;34336;48.270;16.716;2022-09-14T06:44:58;10.82;;;8.88;;
48554;SDS011;34336;48.270;16.716;2022-09-14T06:47:29;11.02;;;8.55;;
48554;SDS011;34336;48.270;16.716;2022-09-14T06:52:24;10.48;;;7.80;;
48554;SDS011;34336;48.270;16.716;2022-09-14T06:54:51;8.60;;;7.25;;
48554;SDS011;34336;48.270;16.716;2022-09-14T06:57:17;9.60;;;8.57;;
48554;SDS011;34336;48.270;16.716;2022-09-14T06:59:44;11.18;;;8.80;;
48554;SDS011;34336;48.270;16.716;2022-09-14T07:02:12;9.75;;;8.15;;
48554;SDS011;34336;48.270;16.716;2022-09-14T07:04:39;10.05;;;8.30;;
48554;SDS011;34336;48.270;16.716;2022-09-14T07:07:06;12.07;;;8.77;;
48554;SDS011;34336;48.270;16.716;2022-09-14T07:09:33;14.13;;;8.80;;
48554;SDS011;34336;48.270;16.716;2022-09-14T07:11:59;11.32;;;8.85;;
48554;SDS011;34336;48.270;16.716;2022-09-14T07:14:26;11.00;;;8.90;;
48554;SDS011;34336;48.270;16.716;2022-09-14T07:16:57;12.40;;;9.18;;
48554;SDS011;34336;48.270;16.716;2022-09-14T07:19:24;11.70;;;9.55;;
48554;SDS011;34336;48.270;16.716;2022-09-14T07:21:51;11.80;;;9.40;;
48554;SDS011;34336;48.270;16.716;2022-09-14T07:24:19;10.60;;;9.00;;
48554;SDS011;34336;48.270;16.716;2022-09-14T07:26:46;9.75;;;8.57;;
48554;SDS011;34336;48.270;16.716;2022-09-14T07:29:18;10.77;;;9.45;;
48554;SDS011;34336;48.270;16.716;2022-09-14T07:31:46;11.60;;;9.77;;
48554;SDS011;34336;48.270;16.716;2022-09-14T07:34:17;14.95;;;9.90;;
48554;SDS011;34336;48.270;16.716;2022-09-14T07:36:45;11.00;;;9.70;;
48554;SDS011;34336;48.270;16.716;2022-09-14T07:39:13;11.10;;;9.50;;
48554;SDS011;34336;48.270;16.716;2022-09-14T07:41:41;13.63;;;10.82;;
48554;SDS011;34336;48.270;16.716;2022-09-14T07:44:09;11.98;;;10.43;;
48554;SDS011;34336;48.270;16.716;2022-09-14T07:46:40;12.30;;;10.77;;
48554;SDS011;34336;48.270;16.716;2022-09-14T07:49:09;14.65;;;11.55;;
48554;SDS011;34336;48.270;16.716;2022-09-14T07:51:37;14.70;;;11.90;;
48554;SDS011;34336;48.270;16.716;2022-09-14T07:54:04;13.43;;;11.90;;
48554;SDS011;34336;48.270;16.716;2022-09-14T07:56:32;11.95;;;10.60;;
48554;SDS011;34336;48.270;16.716;2022-09-14T07:59:00;12.00;;;10.57;;
48554;SDS011;34336;48.270;16.716;2022-09-14T08:01:48;12.32;;;10.70;;
48554;SDS011;34336;48.270;16.716;2022-09-14T08:04:15;11.65;;;10.38;;
48554;SDS011;34336;48.270;16.716;2022-09-14T08:06:42;15.15;;;10.32;;
48554;SDS011;34336;48.270;16.716;2022-09-14T08:09:09;11.57;;;10.38;;
48554;SDS011;34336;48.270;16.716;2022-09-14T08:11:36;10.38;;;9.27;;
48554;SDS011;34336;48.270;16.716;2022-09-14T08:14:04;9.70;;;8.80;;
48554;SDS011;34336;48.270;16.716;2022-09-14T08:16:34;9.93;;;8.93;;
48554;SDS011;34336;48.270;16.716;2022-09-14T08:19:04;10.57;;;9.48;;
48554;SDS011;34336;48.270;16.716;2022-09-14T08:21:32;11.85;;;9.63;;
48554;SDS011;34336;48.270;16.716;2022-09-14T08:24:01;11.10;;;9.52;;
48554;SDS011;34336;48.270;16.716;2022-09-14T08:26:29;10.38;;;9.27;;
48554;SDS011;34336;48.270;16.716;2022-09-14T08:28:57;10.35;;;9.25;;
48554;SDS011;34336;48.270;16.716;2022-09-14T08:31:28;11.38;;;9.38;;
48554;SDS011;34336;48.270;16.716;2022-09-14T08:33:58;12.27;;;9.73;;
48554;SDS011;34336;48.270;16.716;2022-09-14T08:36:28;10.07;;;9.00;;
48554;SDS011;34336;48.270;16.716;2022-09-14T08:38:57;9.80;;;8.85;;
48554;SDS011;34336;48.270;16.716;2022-09-14T08:44:23;10.65;;;8.88;;
48554;SDS011;34336;48.270;16.716;2022-09-14T08:46:53;10.63;;;9.35;;
48554;SDS011;34336;48.270;16.716;2022-09-14T08:57:44;10.95;;;9.88;;
48554;SDS011;34336;48.270;16.716;2022-09-14T09:00:16;11.68;;;9.45;;
48554;SDS011;34336;48.270;16.716;2022-09-14T09:05:28;10.48;;;9.45;;
48554;SDS011;34336;48.270;16.716;2022-09-14T09:08:07;10.63;;;9.40;;
48554;SDS011;34336;48.270;16.716;2022-09-14T09:10:37;13.10;;;8.95;;
48554;SDS011;34336;48.270;16.716;2022-09-14T09:13:05;10.73;;;9.20;;
48554;SDS011;34336;48.270;16.716;2022-09-14T09:15:56;10.70;;;8.68;;
48554;SDS011;34336;48.270;16.716;2022-09-14T09:21:39;10.48;;;8.25;;
48554;SDS011;34336;48.270;16.716;2022-09-14T09:27:10;8.38;;;7.57;;
48554;SDS011;34336;48.270;16.716;2022-09-14T09:29:37;9.10;;;8.25;;
48554;SDS011;34336;48.270;16.716;2022-09-14T09:32:09;8.35;;;7.55;;
48554;SDS011;34336;48.270;16.716;2022-09-14T09:34:46;8.95;;;7.97;;
48554;SDS011;34336;48.270;16.716;2022-09-14T09:37:25;9.65;;;7.82;;
48554;SDS011;34336;48.270;16.716;2022-09-14T09:39:52;10.25;;;8.65;;
48554;SDS011;34336;48.270;16.716;2022-09-14T09:47:30;11.15;;;8.52;;
48554;SDS011;34336;48.270;16.716;2022-09-14T09:49:58;9.10;;;8.20;;
48554;SDS011;34336;48.270;16.716;2022-09-14T09:52:27;9.73;;;7.40;;
48554;SDS011;34336;48.270;16.716;2022-09-14T09:54:55;11.07;;;8.23;;
48554;SDS011;34336;48.270;16.716;2022-09-14T09:57:34;10.68;;;8.45;;
48554;SDS011;34336;48.270;16.716;2022-09-14T10:00:09;10.25;;;8.50;;
48554;SDS011;34336;48.270;16.716;2022-09-14T10:02:39;11.20;;;8.45;;
48554;SDS011;34336;48.270;16.716;2022-09-14T10:07:38;8.43;;;7.35;;
48554;SDS011;34336;48.270;16.716;2022-09-14T10:10:16;10.77;;;7.38;;
48554;SDS011;34336;48.270;16.716;2022-09-14T10:12:52;9.95;;;6.82;;
48554;SDS011;34336;48.270;16.716;2022-09-14T10:15:24;9.10;;;6.60;;
48554;SDS011;34336;48.270;16.716;2022-09-14T10:20:38;9.80;;;6.97;;
48554;SDS011;34336;48.270;16.716;2022-09-14T10:25:47;9.30;;;6.70;;
48554;SDS011;34336;48.270;16.716;2022-09-14T10:28:24;8.75;;;7.05;;
48554;SDS011;34336;48.270;16.716;2022-09-14T10:31:14;7.60;;;6.50;;
48554;SDS011;34336;48.270;16.716;2022-09-14T10:33:47;7.30;;;6.50;;
48554;SDS011;34336;48.270;16.716;2022-09-14T10:41:56;7.88;;;6.97;;
48554;SDS011;34336;48.270;16.716;2022-09-14T10:44:45;8.52;;;7.47;;
48554;SDS011;34336;48.270;16.716;2022-09-14T11:26:05;12.80;;;11.35;;
48554;SDS011;34336;48.270;16.716;2022-09-14T11:28:39;14.18;;;11.57;;
48554;SDS011;34336;48.270;16.716;2022-09-14T11:31:15;14.88;;;12.27;;
48554;SDS011;34336;48.270;16.716;2022-09-14T11:33:49;12.15;;;10.95;;
48554;SDS011;34336;48.270;16.716;2022-09-14T11:36:40;14.68;;;11.50;;
48554;SDS011;34336;48.270;16.716;2022-09-14T11:39:30;11.77;;;10.57;;
48554;SDS011;34336;48.270;16.716;2022-09-14T11:42:06;11.70;;;10.40;;
48554;SDS011;34336;48.270;16.716;2022-09-14T11:44:38;12.73;;;11.18;;
48554;SDS011;34336;48.270;16.716;2022-09-14T11:47:11;12.27;;;11.07;;
48554;SDS011;34336;48.270;16.716;2022-09-14T11:54:52;10.68;;;9.57;;
48554;SDS011;34336;48.270;16.716;2022-09-14T11:57:24;10.60;;;9.50;;
48554;SDS011;34336;48.270;16.716;2022-09-14T12:05:31;10.32;;;9.27;;
48554;SDS011;34336;48.270;16.716;2022-09-14T12:08:02;9.82;;;8.82;;
48554;SDS011;34336;48.270;16.716;2022-09-14T12:11:03;10.88;;;8.85;;
48554;SDS011;34336;48.270;16.716;2022-09-14T12:14:04;8.55;;;7.75;;
48554;SDS011;34336;48.270;16.716;2022-09-14T12:23:02;7.72;;;5.65;;
48554;SDS011;34336;48.270;16.716;2022-09-14T12:25:39;7.13;;;5.18;;
48554;SDS011;34336;48.270;16.716;2022-09-14T12:36:02;6.38;;;5.05;;
48554;SDS011;34336;48.270;16.716;2022-09-14T12:40:58;5.40;;;4.90;;
48554;SDS011;34336;48.270;16.716;2022-09-14T12:46:02;7.00;;;4.78;;
48554;SDS011;34336;48.270;16.716;2022-09-14T12:51:18;5.38;;;4.70;;
48554;SDS011;34336;48.270;16.716;2022-09-14T13:01:42;7.03;;;4.47;;
48554;SDS011;34336;48.270;16.716;2022-09-14T13:04:33;5.90;;;5.05;;
48554;SDS011;34336;48.270;16.716;2022-09-14T13:07:04;7.38;;;5.40;;
48554;SDS011;34336;48.270;16.716;2022-09-14T13:09:33;6.28;;;5.38;;
48554;SDS011;34336;48.270;16.716;2022-09-14T13:12:01;5.60;;;4.97;;
48554;SDS011;34336;48.270;16.716;2022-09-14T13:14:34;5.88;;;5.22;;
48554;SDS011;34336;48.270;16.716;2022-09-14T13:17:13;5.53;;;5.00;;
48554;SDS011;34336;48.270;16.716;2022-09-14T13:19:41;6.70;;;5.30;;
48554;SDS011;34336;48.270;16.716;2022-09-14T13:22:16;6.25;;;5.30;;
48554;SDS011;34336;48.270;16.716;2022-09-14T13:24:45;6.40;;;5.68;;
48554;SDS011;34336;48.270;16.716;2022-09-14T13:27:20;7.50;;;5.45;;
48554;SDS011;34336;48.270;16.716;2022-09-14T13:29:47;6.13;;;4.72;;
48554;SDS011;34336;48.270;16.716;2022-09-14T13:32:22;10.32;;;5.00;;
48554;SDS011;34336;48.270;16.716;2022-09-14T13:34:48;4.43;;;4.00;;
48554;SDS011;34336;48.270;16.716;2022-09-14T13:37:15;6.75;;;4.72;;
48554;SDS011;34336;48.270;16.716;2022-09-14T13:39:42;6.28;;;4.43;;
48554;SDS011;34336;48.270;16.716;2022-09-14T13:42:16;5.82;;;4.45;;
48554;SDS011;34336;48.270;16.716;2022-09-14T13:44:44;5.15;;;4.32;;
48554;SDS011;34336;48.270;16.716;2022-09-14T13:47:12;6.57;;;4.10;;
48554;SDS011;34336;48.270;16.716;2022-09-14T13:49:42;6.80;;;4.35;;
48554;SDS011;34336;48.270;16.716;2022-09-14T13:54:47;7.18;;;4.20;;
48554;SDS011;34336;48.270;16.716;2022-09-14T13:57:35;5.78;;;3.92;;
48554;SDS011;34336;48.270;16.716;2022-09-14T14:02:49;5.78;;;3.90;;
48554;SDS011;34336;48.270;16.716;2022-09-14T14:05:28;5.20;;;4.22;;
48554;SDS011;34336;48.270;16.716;2022-09-14T14:07:55;7.28;;;4.15;;
48554;SDS011;34336;48.270;16.716;2022-09-14T14:10:30;6.87;;;4.47;;
48554;SDS011;34336;48.270;16.716;2022-09-14T14:13:00;4.95;;;4.00;;
48554;SDS011;34336;48.270;16.716;2022-09-14T14:15:41;5.93;;;4.00;;
48554;SDS011;34336;48.270;16.716;2022-09-14T14:21:31;6.38;;;4.28;;
48554;SDS011;34336;48.270;16.716;2022-09-14T14:26:52;8.38;;;3.83;;
48554;SDS011;34336;48.270;16.716;2022-09-14T14:29:20;5.10;;;4.10;;
48554;SDS011;34336;48.270;16.716;2022-09-14T14:31:48;5.80;;;3.90;;
48554;SDS011;34336;48.270;16.716;2022-09-14T14:34:28;5.38;;;3.75;;
48554;SDS011;34336;48.270;16.716;2022-09-14T14:36:55;7.57;;;4.30;;
48554;SDS011;34336;48.270;16.716;2022-09-14T14:39:22;7.00;;;4.18;;
48554;SDS011;34336;48.270;16.716;2022-09-14T14:41:50;6.85;;;3.88;;
48554;SDS011;34336;48.270;16.716;2022-09-14T14:44:19;5.53;;;3.75;;
48554;SDS011;34336;48.270;16.716;2022-09-14T14:46:48;4.97;;;3.90;;
48554;SDS011;34336;48.270;16.716;2022-09-14T14:49:15;5.35;;;3.90;;
48554;SDS011;34336;48.270;16.716;2022-09-14T14:51:46;5.57;;;3.97;;
48554;SDS011;34336;48.270;16.716;2022-09-14T14:54:13;6.10;;;3.97;;
48554;SDS011;34336;48.270;16.716;2022-09-14T14:56:47;4.43;;;3.45;;
48554;SDS011;34336;48.270;16.716;2022-09-14T15:01:42;5.13;;;3.85;;
48554;SDS011;34336;48.270;16.716;2022-09-14T15:04:09;6.63;;;4.03;;
48554;SDS011;34336;48.270;16.716;2022-09-14T15:06:36;5.68;;;3.88;;
48554;SDS011;34336;48.270;16.716;2022-09-14T15:09:05;5.65;;;4.07;;
48554;SDS011;34336;48.270;16.716;2022-09-14T15:11:38;6.00;;;4.38;;
48554;SDS011;34336;48.270;16.716;2022-09-14T15:14:12;6.07;;;3.78;;
48554;SDS011;34336;48.270;16.716;2022-09-14T15:16:44;5.85;;;3.90;;
48554;SDS011;34336;48.270;16.716;2022-09-14T15:19:12;5.55;;;3.60;;
48554;SDS011;34336;48.270;16.716;2022-09-14T15:21:40;5.97;;;3.72;;
48554;SDS011;34336;48.270;16.716;2022-09-14T15:24:08;6.40;;;3.78;;
48554;SDS011;34336;48.270;16.716;2022-09-14T15:26:36;6.97;;;4.22;;
48554;SDS011;34336;48.270;16.716;2022-09-14T15:29:03;7.20;;;3.80;;
48554;SDS011;34336;48.270;16.716;2022-09-14T15:31:31;7.63;;;3.78;;
48554;SDS011;34336;48.270;16.716;2022-09-14T15:33:58;5.70;;;3.65;;
48554;SDS011;34336;48.270;16.716;2022-09-14T15:39:10;6.10;;;3.97;;
48554;SDS011;34336;48.270;16.716;2022-09-14T15:41:39;6.72;;;4.07;;
48554;SDS011;34336;48.270;16.716;2022-09-14T15:44:06;6.43;;;3.55;;
48554;SDS011;34336;48.270;16.716;2022-09-14T15:46:33;7.55;;;3.70;;
48554;SDS011;34336;48.270;16.716;2022-09-14T15:49:02;7.65;;;3.72;;
48554;SDS011;34336;48.270;16.716;2022-09-14T15:51:31;7.20;;;3.85;;
48554;SDS011;34336;48.270;16.716;2022-09-14T15:54:00;6.18;;;4.03;;
48554;SDS011;34336;48.270;16.716;2022-09-14T15:56:27;4.65;;;3.90;;
48554;SDS011;34336;48.270;16.716;2022-09-14T15:58:58;4.65;;;3.97;;
48554;SDS011;34336;48.270;16.716;2022-09-14T16:01:26;5.07;;;3.58;;
48554;SDS011;34336;48.270;16.716;2022-09-14T16:03:57;6.78;;;4.00;;
48554;SDS011;34336;48.270;16.716;2022-09-14T16:06:25;5.32;;;3.53;;
48554;SDS011;34336;48.270;16.716;2022-09-14T16:08:52;36.13;;;26.60;;
48554;SDS011;34336;48.270;16.716;2022-09-14T16:11:20;6.95;;;4.95;;
48554;SDS011;34336;48.270;16.716;2022-09-14T16:13:48;6.85;;;4.13;;
48554;SDS011;34336;48.270;16.716;2022-09-14T16:16:16;6.80;;;5.47;;
48554;SDS011;34336;48.270;16.716;2022-09-14T16:18:45;6.15;;;4.72;;
48554;SDS011;34336;48.270;16.716;2022-09-14T16:21:15;7.68;;;4.25;;
48554;SDS011;34336;48.270;16.716;2022-09-14T16:23:46;4.82;;;3.35;;
48554;SDS011;34336;48.270;16.716;2022-09-14T16:26:21;14.40;;;9.38;;
48554;SDS011;34336;48.270;16.716;2022-09-14T16:28:50;30.13;;;21.92;;
48554;SDS011;34336;48.270;16.716;2022-09-14T16:31:19;8.43;;;6.47;;
48554;SDS011;34336;48.270;16.716;2022-09-14T16:33:52;4.82;;;3.67;;
48554;SDS011;34336;48.270;16.716;2022-09-14T16:36:21;4.15;;;3.20;;
48554;SDS011;34336;48.270;16.716;2022-09-14T16:38:51;5.90;;;3.50;;
48554;SDS011;34336;48.270;16.716;2022-09-14T16:41:21;4.05;;;3.47;;
48554;SDS011;34336;48.270;16.716;2022-09-14T16:43:52;6.30;;;3.47;;
48554;SDS011;34336;48.270;16.716;2022-09-14T16:46:20;3.92;;;2.85;;
48554;SDS011;34336;48.270;16.716;2022-09-14T16:48:48;4.28;;;3.35;;
48554;SDS011;34336;48.270;16.716;2022-09-14T16:51:16;5.50;;;2.97;;
48554;SDS011;34336;48.270;16.716;2022-09-14T16:53:45;5.28;;;3.42;;
48554;SDS011;34336;48.270;16.716;2022-09-14T16:56:17;8.82;;;3.58;;
48554;SDS011;34336;48.270;16.716;2022-09-14T16:58:55;6.60;;;3.63;;
48554;SDS011;34336;48.270;16.716;2022-09-14T17:01:24;5.63;;;3.58;;
48554;SDS011;34336;48.270;16.716;2022-09-14T17:03:57;7.05;;;3.45;;
48554;SDS011;34336;48.270;16.716;2022-09-14T17:06:35;6.88;;;3.30;;
48554;SDS011;34336;48.270;16.716;2022-09-14T17:09:05;5.40;;;3.47;;
48554;SDS011;34336;48.270;16.716;2022-09-14T17:11:34;12.05;;;7.53;;
48554;SDS011;34336;48.270;16.716;2022-09-14T17:14:02;8.82;;;6.00;;
48554;SDS011;34336;48.270;16.716;2022-09-14T17:16:30;5.30;;;3.70;;
48554;SDS011;34336;48.270;16.716;2022-09-14T17:18:58;6.95;;;3.75;;
48554;SDS011;34336;48.270;16.716;2022-09-14T17:21:28;5.97;;;4.07;;
48554;SDS011;34336;48.270;16.716;2022-09-14T17:23:58;7.20;;;3.75;;
48554;SDS011;34336;48.270;16.716;2022-09-14T17:26:25;7.20;;;4.05;;
48554;SDS011;34336;48.270;16.716;2022-09-14T17:28:54;11.80;;;10.15;;
48554;SDS011;34336;48.270;16.716;2022-09-14T17:31:23;10.35;;;8.70;;
48554;SDS011;34336;48.270;16.716;2022-09-14T17:33:53;13.23;;;8.73;;
48554;SDS011;34336;48.270;16.716;2022-09-14T17:36:21;11.40;;;10.20;;
48554;SDS011;34336;48.270;16.716;2022-09-14T17:38:48;8.13;;;6.28;;
48554;SDS011;34336;48.270;16.716;2022-09-14T17:41:19;15.00;;;10.55;;
48554;SDS011;34336;48.270;16.716;2022-09-14T17:43:51;13.50;;;8.63;;
48554;SDS011;34336;48.270;16.716;2022-09-14T17:46:20;15.45;;;11.20;;
48554;SDS011;34336;48.270;16.716;2022-09-14T17:48:48;10.60;;;7.82;;
48554;SDS011;34336;48.270;16.716;2022-09-14T17:51:20;9.27;;;6.75;;
48554;SDS011;34336;48.270;16.716;2022-09-14T17:53:49;9.73;;;6.95;;